sensor_id;sensor_type;location;lat;lon;timestamp;temperature;humidity
11700;DHT22;5906;51.660;6.674;2023-11-19T05:18:04;12.10;99.90
11700;DHT22;5906;51.660;6.674;2023-11-19T05:20:31;12.10;99.90
11700;DHT22;5906;51.660;6.674;2023-11-19T05:22:59;12.10;99.90
11700;DHT22;5906;51.660;6.674;2023-11-19T05:25:27;12.10;99.90
11700;DHT22;5906;51.660;6.674;2023-11-19T05:27:54;12.10;99.90
11700;DHT22;5906;51.660;6.674;2023-11-19T05:30:21;12.20;99.90
11700;DHT22;5906;51.660;6.674;2023-11-19T05:32:49;12.10;99.90
11700;DHT22;5906;51.660;6.674;2023-11-19T05:35:16;12.10;99.90
11700;DHT22;5906;51.660;6.674;2023-11-19T05:37:43;12.10;99.90
11700;DHT22;5906;51.660;6.674;2023-11-19T05:40:10;12.10;99.90
11700;DHT22;5906;51.660;6.674;2023-11-19T05:42:42;12.10;99.90
11700;DHT22;5906;51.660;6.674;2023-11-19T05:45:11;12.10;99.90
11700;DHT22;5906;51.660;6.674;2023-11-19T05:47:38;12.10;99.90
11700;DHT22;5906;51.660;6.674;2023-11-19T05:50:06;12.00;99.90
11700;DHT22;5906;51.660;6.674;2023-11-19T05:52:33;12.00;99.90
11700;DHT22;5906;51.660;6.674;2023-11-19T05:55:00;12.00;99.90
11700;DHT22;5906;51.660;6.674;2023-11-19T05:57:31;12.00;99.90
11700;DHT22;5906;51.660;6.674;2023-11-19T06:00:13;11.90;99.90
11700;DHT22;5906;51.660;6.674;2023-11-19T06:02:42;12.00;99.90
11700;DHT22;5906;51.660;6.674;2023-11-19T06:05:09;11.90;99.90
11700;DHT22;5906;51.660;6.674;2023-11-19T06:07:36;12.00;99.90
11700;DHT22;5906;51.660;6.674;2023-11-19T06:10:06;12.00;99.90
11700;DHT22;5906;51.660;6.674;2023-11-19T06:12:36;12.00;99.90
11700;DHT22;5906;51.660;6.674;2023-11-19T06:15:06;11.90;99.90
11700;DHT22;5906;51.660;6.674;2023-11-19T06:17:33;11.90;99.90
11700;DHT22;5906;51.660;6.674;2023-11-19T06:20:00;11.90;99.90
11700;DHT22;5906;51.660;6.674;2023-11-19T06:22:27;11.90;99.90
11700;DHT22;5906;51.660;6.674;2023-11-19T06:24:54;12.00;99.90
11700;DHT22;5906;51.660;6.674;2023-11-19T06:27:21;12.00;99.90
11700;DHT22;5906;51.660;6.674;2023-11-19T06:29:49;11.90;99.90
11700;DHT22;5906;51.660;6.674;2023-11-19T06:32:16;11.90;99.90
11700;DHT22;5906;51.660;6.674;2023-11-19T06:34:43;11.90;99.90
11700;DHT22;5906;51.660;6.674;2023-11-19T06:37:10;11.90;99.90
11700;DHT22;5906;51.660;6.674;2023-11-19T06:39:37;11.90;99.90
11700;DHT22;5906;51.660;6.674;2023-11-19T06:42:05;11.90;99.90
11700;DHT22;5906;51.660;6.674;2023-11-19T06:44:32;11.90;99.90
11700;DHT22;5906;51.660;6.674;2023-11-19T06:46:59;12.00;99.90
11700;DHT22;5906;51.660;6.674;2023-11-19T06:49:26;12.10;99.90
11700;DHT22;5906;51.660;6.674;2023-11-19T06:51:53;12.10;99.90
11700;DHT22;5906;51.660;6.674;2023-11-19T06:54:20;12.10;99.90
11700;DHT22;5906;51.660;6.674;2023-11-19T06:56:48;12.20;99.90
11700;DHT22;5906;51.660;6.674;2023-11-19T06:59:15;12.10;99.90
11700;DHT22;5906;51.660;6.674;2023-11-19T07:01:42;12.00;99.90
11700;DHT22;5906;51.660;6.674;2023-11-19T07:04:11;12.00;99.90
11700;DHT22;5906;51.660;6.674;2023-11-19T07:06:39;11.80;99.90
11700;DHT22;5906;51.660;6.674;2023-11-19T07:09:09;11.80;99.90
11700;DHT22;5906;51.660;6.674;2023-11-19T07:11:38;11.70;99.90
11700;DHT22;5906;51.660;6.674;2023-11-19T07:16:37;11.70;99.90
11700;DHT22;5906;51.660;6.674;2023-11-19T07:19:04;11.70;99.90
11700;DHT22;5906;51.660;6.674;2023-11-19T07:21:32;11.70;99.90
11700;DHT22;5906;51.660;6.674;2023-11-19T07:24:00;11.60;99.90
11700;DHT22;5906;51.660;6.674;2023-11-19T07:26:27;11.60;99.90
11700;DHT22;5906;51.660;6.674;2023-11-19T07:28:54;11.60;99.90
11700;DHT22;5906;51.660;6.674;2023-11-19T07:31:23;11.60;99.90
11700;DHT22;5906;51.660;6.674;2023-11-19T07:34:04;11.60;99.90
11700;DHT22;5906;51.660;6.674;2023-11-19T07:36:33;11.60;99.90
11700;DHT22;5906;51.660;6.674;2023-11-19T07:39:05;11.60;99.90
11700;DHT22;5906;51.660;6.674;2023-11-19T07:41:32;11.70;99.90
11700;DHT22;5906;51.660;6.674;2023-11-19T07:44:00;11.60;99.90
11700;DHT22;5906;51.660;6.674;2023-11-19T07:46:27;11.60;99.90
11700;DHT22;5906;51.660;6.674;2023-11-19T07:48:54;11.60;99.90
11700;DHT22;5906;51.660;6.674;2023-11-19T07:51:21;11.60;99.90
11700;DHT22;5906;51.660;6.674;2023-11-19T07:53:48;11.70;99.90
11700;DHT22;5906;51.660;6.674;2023-11-19T07:56:16;11.70;99.90
11700;DHT22;5906;51.660;6.674;2023-11-19T07:58:43;11.70;99.90
11700;DHT22;5906;51.660;6.674;2023-11-19T08:01:10;11.70;99.90
11700;DHT22;5906;51.660;6.674;2023-11-19T08:03:37;11.80;99.90
11700;DHT22;5906;51.660;6.674;2023-11-19T08:06:04;11.70;99.90
11700;DHT22;5906;51.660;6.674;2023-11-19T08:08:34;11.70;99.90
11700;DHT22;5906;51.660;6.674;2023-11-19T08:11:02;11.70;99.90
11700;DHT22;5906;51.660;6.674;2023-11-19T08:13:29;11.80;99.90
11700;DHT22;5906;51.660;6.674;2023-11-19T08:15:55;11.90;99.90
11700;DHT22;5906;51.660;6.674;2023-11-19T08:18:26;12.00;99.90
11700;DHT22;5906;51.660;6.674;2023-11-19T08:21:03;12.00;99.90
11700;DHT22;5906;51.660;6.674;2023-11-19T08:23:35;12.00;99.90
11700;DHT22;5906;51.660;6.674;2023-11-19T08:26:03;12.10;99.90
11700;DHT22;5906;51.660;6.674;2023-11-19T08:28:32;12.10;99.90
11700;DHT22;5906;51.660;6.674;2023-11-19T08:31:05;12.20;99.90
11700;DHT22;5906;51.660;6.674;2023-11-19T08:33:32;12.20;99.90
11700;DHT22;5906;51.660;6.674;2023-11-19T08:35:59;12.20;99.90
11700;DHT22;5906;51.660;6.674;2023-11-19T08:38:27;12.30;99.90
11700;DHT22;5906;51.660;6.674;2023-11-19T08:40:58;12.20;99.90
11700;DHT22;5906;51.660;6.674;2023-11-19T08:43:27;12.30;99.90
11700;DHT22;5906;51.660;6.674;2023-11-19T08:45:54;12.30;99.90
11700;DHT22;5906;51.660;6.674;2023-11-19T08:48:21;12.30;99.90
11700;DHT22;5906;51.660;6.674;2023-11-19T08:50:49;12.30;99.90
11700;DHT22;5906;51.660;6.674;2023-11-19T08:53:16;12.30;99.90
11700;DHT22;5906;51.660;6.674;2023-11-19T08:55:43;12.40;99.90
11700;DHT22;5906;51.660;6.674;2023-11-19T08:58:10;12.50;99.90
11700;DHT22;5906;51.660;6.674;2023-11-19T09:00:37;12.50;99.90
11700;DHT22;5906;51.660;6.674;2023-11-19T09:03:04;12.60;99.90
11700;DHT22;5906;51.660;6.674;2023-11-19T09:05:31;12.70;99.90
11700;DHT22;5906;51.660;6.674;2023-11-19T09:07:58;12.60;99.90
11700;DHT22;5906;51.660;6.674;2023-11-19T09:10:25;12.70;99.90
11700;DHT22;5906;51.660;6.674;2023-11-19T09:12:53;12.70;99.90
11700;DHT22;5906;51.660;6.674;2023-11-19T09:15:24;12.80;99.90
11700;DHT22;5906;51.660;6.674;2023-11-19T09:17:51;12.80;99.90
11700;DHT22;5906;51.660;6.674;2023-11-19T09:20:18;12.80;99.90
11700;DHT22;5906;51.660;6.674;2023-11-19T09:22:47;12.90;99.90
11700;DHT22;5906;51.660;6.674;2023-11-19T09:25:15;13.00;99.90
11700;DHT22;5906;51.660;6.674;2023-11-19T09:27:44;13.00;99.90
11700;DHT22;5906;51.660;6.674;2023-11-19T09:30:11;13.00;99.90
11700;DHT22;5906;51.660;6.674;2023-11-19T09:32:39;12.90;99.90
11700;DHT22;5906;51.660;6.674;2023-11-19T09:35:07;12.90;99.90
11700;DHT22;5906;51.660;6.674;2023-11-19T09:37:35;12.90;99.90
11700;DHT22;5906;51.660;6.674;2023-11-19T09:40:02;13.00;99.90
11700;DHT22;5906;51.660;6.674;2023-11-19T09:42:30;13.10;99.90
11700;DHT22;5906;51.660;6.674;2023-11-19T09:44:59;13.10;99.90
11700;DHT22;5906;51.660;6.674;2023-11-19T09:47:27;13.00;99.90
11700;DHT22;5906;51.660;6.674;2023-11-19T09:49:56;13.00;99.90
11700;DHT22;5906;51.660;6.674;2023-11-19T09:52:25;13.00;99.90
11700;DHT22;5906;51.660;6.674;2023-11-19T09:54:52;13.00;99.90
11700;DHT22;5906;51.660;6.674;2023-11-19T09:57:19;12.90;99.90
11700;DHT22;5906;51.660;6.674;2023-11-19T09:59:46;12.90;99.90
11700;DHT22;5906;51.660;6.674;2023-11-19T10:02:14;12.90;99.90
11700;DHT22;5906;51.660;6.674;2023-11-19T10:04:42;12.90;99.90
11700;DHT22;5906;51.660;6.674;2023-11-19T10:07:11;12.90;99.90
11700;DHT22;5906;51.660;6.674;2023-11-19T10:09:38;12.90;99.90
11700;DHT22;5906;51.660;6.674;2023-11-19T10:12:05;12.90;99.90
11700;DHT22;5906;51.660;6.674;2023-11-19T10:14:35;12.90;99.90
11700;DHT22;5906;51.660;6.674;2023-11-19T10:17:07;12.90;99.90
11700;DHT22;5906;51.660;6.674;2023-11-19T10:19:34;13.00;99.90
11700;DHT22;5906;51.660;6.674;2023-11-19T10:22:05;13.00;99.90
11700;DHT22;5906;51.660;6.674;2023-11-19T10:24:33;13.00;99.90
11700;DHT22;5906;51.660;6.674;2023-11-19T10:27:01;13.00;99.90
11700;DHT22;5906;51.660;6.674;2023-11-19T10:29:30;13.00;99.90
11700;DHT22;5906;51.660;6.674;2023-11-19T10:31:57;13.20;99.90
11700;DHT22;5906;51.660;6.674;2023-11-19T10:34:45;13.30;99.90
11700;DHT22;5906;51.660;6.674;2023-11-19T10:37:28;13.30;99.90
11700;DHT22;5906;51.660;6.674;2023-11-19T10:40:00;13.40;99.90
11700;DHT22;5906;51.660;6.674;2023-11-19T10:42:27;13.50;99.90
11700;DHT22;5906;51.660;6.674;2023-11-19T10:44:54;13.50;99.90
11700;DHT22;5906;51.660;6.674;2023-11-19T10:47:22;13.40;99.90
11700;DHT22;5906;51.660;6.674;2023-11-19T10:49:53;13.50;99.90
11700;DHT22;5906;51.660;6.674;2023-11-19T10:52:20;13.50;99.90
11700;DHT22;5906;51.660;6.674;2023-11-19T10:54:51;13.50;99.90
11700;DHT22;5906;51.660;6.674;2023-11-19T10:57:21;13.40;99.90
11700;DHT22;5906;51.660;6.674;2023-11-19T10:59:52;13.40;99.90
11700;DHT22;5906;51.660;6.674;2023-11-19T11:02:24;13.40;99.90
11700;DHT22;5906;51.660;6.674;2023-11-19T11:04:52;13.30;99.90
11700;DHT22;5906;51.660;6.674;2023-11-19T11:07:21;13.30;99.90
11700;DHT22;5906;51.660;6.674;2023-11-19T11:10:02;13.40;99.90
11700;DHT22;5906;51.660;6.674;2023-11-19T11:12:37;13.50;99.90
11700;DHT22;5906;51.660;6.674;2023-11-19T11:15:07;13.50;99.90
11700;DHT22;5906;51.660;6.674;2023-11-19T11:17:35;13.60;99.90
11700;DHT22;5906;51.660;6.674;2023-11-19T11:20:04;13.60;99.90
11700;DHT22;5906;51.660;6.674;2023-11-19T11:23:06;13.50;99.90
11700;DHT22;5906;51.660;6.674;2023-11-19T11:29:29;13.60;99.90
11700;DHT22;5906;51.660;6.674;2023-11-19T11:34:35;13.60;99.90
11700;DHT22;5906;51.660;6.674;2023-11-19T11:37:18;13.60;99.90
11700;DHT22;5906;51.660;6.674;2023-11-19T11:39:50;13.60;99.90
11700;DHT22;5906;51.660;6.674;2023-11-19T11:50:16;14.30;99.90
11700;DHT22;5906;51.660;6.674;2023-11-19T11:55:37;14.40;99.90
11700;DHT22;5906;51.660;6.674;2023-11-19T11:58:07;14.40;99.90
11700;DHT22;5906;51.660;6.674;2023-11-19T12:00:40;14.30;99.90
11700;DHT22;5906;51.660;6.674;2023-11-19T12:03:08;14.30;99.90
11700;DHT22;5906;51.660;6.674;2023-11-19T12:05:44;14.20;99.90
11700;DHT22;5906;51.660;6.674;2023-11-19T12:08:15;14.30;99.90
11700;DHT22;5906;51.660;6.674;2023-11-19T12:10:56;14.40;99.90
11700;DHT22;5906;51.660;6.674;2023-11-19T12:13:46;14.50;99.90
11700;DHT22;5906;51.660;6.674;2023-11-19T12:16:14;14.40;99.90
11700;DHT22;5906;51.660;6.674;2023-11-19T12:18:41;14.40;99.90
11700;DHT22;5906;51.660;6.674;2023-11-19T12:21:08;14.40;99.90
11700;DHT22;5906;51.660;6.674;2023-11-19T12:23:44;14.30;99.90
11700;DHT22;5906;51.660;6.674;2023-11-19T12:26:31;14.20;99.90
11700;DHT22;5906;51.660;6.674;2023-11-19T12:29:01;14.10;99.90
11700;DHT22;5906;51.660;6.674;2023-11-19T12:38:23;13.90;99.90
11700;DHT22;5906;51.660;6.674;2023-11-19T12:41:07;13.90;99.90
11700;DHT22;5906;51.660;6.674;2023-11-19T12:43:35;13.70;99.90
11700;DHT22;5906;51.660;6.674;2023-11-19T12:46:21;13.60;99.90
11700;DHT22;5906;51.660;6.674;2023-11-19T12:48:49;13.50;99.90
11700;DHT22;5906;51.660;6.674;2023-11-19T12:51:16;13.50;99.90
11700;DHT22;5906;51.660;6.674;2023-11-19T12:53:53;13.40;99.90
11700;DHT22;5906;51.660;6.674;2023-11-19T12:56:25;13.40;99.90
11700;DHT22;5906;51.660;6.674;2023-11-19T12:58:52;13.40;99.90
11700;DHT22;5906;51.660;6.674;2023-11-19T13:01:22;13.40;99.90
11700;DHT22;5906;51.660;6.674;2023-11-19T13:03:49;13.40;99.90
11700;DHT22;5906;51.660;6.674;2023-11-19T13:06:21;13.30;99.90
11700;DHT22;5906;51.660;6.674;2023-11-19T13:08:50;13.30;99.90
11700;DHT22;5906;51.660;6.674;2023-11-19T13:11:31;13.30;99.90
11700;DHT22;5906;51.660;6.674;2023-11-19T13:14:03;13.40;99.90
11700;DHT22;5906;51.660;6.674;2023-11-19T13:16:38;13.40;99.90
11700;DHT22;5906;51.660;6.674;2023-11-19T13:19:06;13.50;99.90
11700;DHT22;5906;51.660;6.674;2023-11-19T13:21:33;13.40;99.90
11700;DHT22;5906;51.660;6.674;2023-11-19T13:24:00;13.50;99.90
11700;DHT22;5906;51.660;6.674;2023-11-19T13:26:27;13.40;99.90
11700;DHT22;5906;51.660;6.674;2023-11-19T13:28:56;13.50;99.90
11700;DHT22;5906;51.660;6.674;2023-11-19T13:31:29;13.50;99.90
11700;DHT22;5906;51.660;6.674;2023-11-19T13:33:56;13.50;99.90
11700;DHT22;5906;51.660;6.674;2023-11-19T13:36:25;13.60;99.90
11700;DHT22;5906;51.660;6.674;2023-11-19T13:38:53;13.70;99.90
11700;DHT22;5906;51.660;6.674;2023-11-19T13:41:26;13.80;99.90
11700;DHT22;5906;51.660;6.674;2023-11-19T13:43:53;13.80;99.90
11700;DHT22;5906;51.660;6.674;2023-11-19T13:46:22;13.70;99.90
11700;DHT22;5906;51.660;6.674;2023-11-19T13:48:49;13.80;99.90
11700;DHT22;5906;51.660;6.674;2023-11-19T13:51:16;13.80;99.90
11700;DHT22;5906;51.660;6.674;2023-11-19T13:53:43;13.80;99.90
11700;DHT22;5906;51.660;6.674;2023-11-19T13:56:13;13.80;99.90
11700;DHT22;5906;51.660;6.674;2023-11-19T13:58:40;13.90;99.90
11700;DHT22;5906;51.660;6.674;2023-11-19T14:01:07;13.70;99.90
11700;DHT22;5906;51.660;6.674;2023-11-19T14:03:34;13.70;99.90
11700;DHT22;5906;51.660;6.674;2023-11-19T14:06:01;13.60;99.90
11700;DHT22;5906;51.660;6.674;2023-11-19T14:08:29;13.50;99.90
11700;DHT22;5906;51.660;6.674;2023-11-19T14:10:57;13.50;99.90
11700;DHT22;5906;51.660;6.674;2023-11-19T14:13:24;13.40;99.90
11700;DHT22;5906;51.660;6.674;2023-11-19T14:15:51;13.40;99.90
11700;DHT22;5906;51.660;6.674;2023-11-19T14:18:21;13.40;99.90
11700;DHT22;5906;51.660;6.674;2023-11-19T14:21:00;13.40;99.90
11700;DHT22;5906;51.660;6.674;2023-11-19T14:23:29;13.30;99.90
11700;DHT22;5906;51.660;6.674;2023-11-19T14:26:04;13.10;99.90
11700;DHT22;5906;51.660;6.674;2023-11-19T14:28:31;13.10;99.90
11700;DHT22;5906;51.660;6.674;2023-11-19T14:31:01;13.10;99.90
11700;DHT22;5906;51.660;6.674;2023-11-19T14:33:28;13.00;99.90
11700;DHT22;5906;51.660;6.674;2023-11-19T14:35:56;12.90;99.90
11700;DHT22;5906;51.660;6.674;2023-11-19T14:38:23;12.80;99.90
11700;DHT22;5906;51.660;6.674;2023-11-19T14:40:50;12.70;99.90
11700;DHT22;5906;51.660;6.674;2023-11-19T14:43:17;12.70;99.90
11700;DHT22;5906;51.660;6.674;2023-11-19T14:45:44;12.70;99.90
11700;DHT22;5906;51.660;6.674;2023-11-19T14:48:17;12.70;99.90
11700;DHT22;5906;51.660;6.674;2023-11-19T14:50:44;12.80;99.90
11700;DHT22;5906;51.660;6.674;2023-11-19T14:53:12;12.60;99.90
11700;DHT22;5906;51.660;6.674;2023-11-19T14:55:39;12.70;99.90
11700;DHT22;5906;51.660;6.674;2023-11-19T14:58:06;12.60;99.90
11700;DHT22;5906;51.660;6.674;2023-11-19T15:00:37;12.60;99.90
11700;DHT22;5906;51.660;6.674;2023-11-19T15:03:05;12.60;99.90
11700;DHT22;5906;51.660;6.674;2023-11-19T15:05:33;12.60;99.90
11700;DHT22;5906;51.660;6.674;2023-11-19T15:11:34;12.50;99.90
11700;DHT22;5906;51.660;6.674;2023-11-19T15:19:26;12.60;99.90
11700;DHT22;5906;51.660;6.674;2023-11-19T15:26:39;12.40;99.90
11700;DHT22;5906;51.660;6.674;2023-11-19T15:29:06;12.30;99.90
11700;DHT22;5906;51.660;6.674;2023-11-19T15:31:33;12.20;99.90
11700;DHT22;5906;51.660;6.674;2023-11-19T15:33:59;12.20;99.90
11700;DHT22;5906;51.660;6.674;2023-11-19T15:36:26;12.10;99.90
11700;DHT22;5906;51.660;6.674;2023-11-19T15:38:53;12.10;99.90
11700;DHT22;5906;51.660;6.674;2023-11-19T15:41:20;12.10;99.90
11700;DHT22;5906;51.660;6.674;2023-11-19T15:43:47;12.10;99.90
11700;DHT22;5906;51.660;6.674;2023-11-19T15:46:13;12.10;99.90
11700;DHT22;5906;51.660;6.674;2023-11-19T15:48:43;12.10;99.90
11700;DHT22;5906;51.660;6.674;2023-11-19T15:51:09;12.10;99.90
11700;DHT22;5906;51.660;6.674;2023-11-19T15:53:36;12.10;99.90
11700;DHT22;5906;51.660;6.674;2023-11-19T15:56:05;12.20;99.90
11700;DHT22;5906;51.660;6.674;2023-11-19T15:58:32;12.20;99.90
11700;DHT22;5906;51.660;6.674;2023-11-19T16:01:01;12.10;99.90
11700;DHT22;5906;51.660;6.674;2023-11-19T16:03:28;12.10;99.90
11700;DHT22;5906;51.660;6.674;2023-11-19T16:05:57;12.10;99.90
11700;DHT22;5906;51.660;6.674;2023-11-19T16:08:35;12.10;99.90
11700;DHT22;5906;51.660;6.674;2023-11-19T16:11:02;12.10;99.90
11700;DHT22;5906;51.660;6.674;2023-11-19T16:13:29;12.10;99.90
11700;DHT22;5906;51.660;6.674;2023-11-19T16:15:56;12.10;99.90
11700;DHT22;5906;51.660;6.674;2023-11-19T16:18:23;12.20;99.90
11700;DHT22;5906;51.660;6.674;2023-11-19T16:20:50;12.10;99.90
11700;DHT22;5906;51.660;6.674;2023-11-19T16:23:17;12.10;99.90
11700;DHT22;5906;51.660;6.674;2023-11-19T16:25:46;12.10;99.90
11700;DHT22;5906;51.660;6.674;2023-11-19T16:28:13;12.10;99.90
11700;DHT22;5906;51.660;6.674;2023-11-19T16:30:40;12.10;99.90
11700;DHT22;5906;51.660;6.674;2023-11-19T16:33:07;12.00;99.90
11700;DHT22;5906;51.660;6.674;2023-11-19T16:35:46;12.00;99.90
11700;DHT22;5906;51.660;6.674;2023-11-19T16:38:13;11.90;99.90
11700;DHT22;5906;51.660;6.674;2023-11-19T16:40:40;11.80;99.90
11700;DHT22;5906;51.660;6.674;2023-11-19T16:43:07;11.80;99.90
11700;DHT22;5906;51.660;6.674;2023-11-19T16:45:34;11.80;99.90
11700;DHT22;5906;51.660;6.674;2023-11-19T16:48:01;11.70;99.90
11700;DHT22;5906;51.660;6.674;2023-11-19T16:50:28;11.70;99.90
11700;DHT22;5906;51.660;6.674;2023-11-19T16:52:55;11.70;99.90
11700;DHT22;5906;51.660;6.674;2023-11-19T16:55:22;11.70;99.90
11700;DHT22;5906;51.660;6.674;2023-11-19T16:57:49;11.60;99.90
